createdAt,value
2022-10-25T00:01:36.475Z,57.61
2022-10-25T00:04:03.687Z,57.88
2022-10-25T00:06:30.534Z,58.21
2022-10-25T00:08:57.401Z,59.18
2022-10-25T00:11:27.669Z,59.38
2022-10-25T00:13:57.333Z,59.82
2022-10-25T00:16:28.070Z,58.68
2022-10-25T00:18:55.175Z,58.81
2022-10-25T00:21:21.969Z,59.29
2022-10-25T00:23:50.331Z,59.46
2022-10-25T00:26:17.614Z,58.24
2022-10-25T00:28:44.865Z,58.27
2022-10-25T00:31:14.523Z,58.33
2022-10-25T00:33:42.712Z,58.07
2022-10-25T00:36:13.870Z,57.57
2022-10-25T00:38:41.089Z,57.90
2022-10-25T00:41:08.554Z,57.90
2022-10-25T00:43:44.468Z,57.69
2022-10-25T00:46:20.792Z,57.36
2022-10-25T00:49:08.757Z,57.53
2022-10-25T00:51:47.470Z,57.62
2022-10-25T00:54:19.356Z,58.36
2022-10-25T00:56:47.849Z,59.28
2022-10-25T00:59:20.852Z,59.21
2022-10-25T01:01:48.059Z,59.99
2022-10-25T01:04:17.573Z,60.96
2022-10-25T01:06:50.503Z,59.69
2022-10-25T01:09:22.084Z,59.95
2022-10-25T01:11:49.009Z,58.94
2022-10-25T01:14:16.969Z,58.44
2022-10-25T01:16:57.511Z,58.46
2022-10-25T01:19:53.140Z,59.08
2022-10-25T01:22:30.769Z,59.30
2022-10-25T01:25:11.836Z,60.16
2022-10-25T01:27:59.745Z,59.79
2022-10-25T01:30:50.402Z,59.81
2022-10-25T01:33:27.938Z,59.49
2022-10-25T01:36:11.156Z,60.83
2022-10-25T01:38:52.861Z,61.03
2022-10-25T01:41:49.319Z,60.07
2022-10-25T01:44:34.331Z,60.97
2022-10-25T01:47:04.607Z,60.00
2022-10-25T01:49:58.303Z,60.03
2022-10-25T01:52:25.567Z,60.07
2022-10-25T01:54:52.626Z,60.96
2022-10-25T01:57:43.223Z,60.64
2022-10-25T02:00:21.238Z,61.62
2022-10-25T02:03:12.455Z,62.03
2022-10-25T02:06:17.008Z,61.54
2022-10-25T02:08:57.099Z,60.54
2022-10-25T02:11:26.659Z,61.40
2022-10-25T02:14:24.098Z,61.70
2022-10-25T02:16:54.244Z,61.30
2022-10-25T02:19:26.541Z,61.61
2022-10-25T02:21:55.644Z,61.27
2022-10-25T02:24:26.646Z,60.75
2022-10-25T02:26:55.411Z,60.76
2022-10-25T02:29:24.110Z,61.26
2022-10-25T02:31:51.242Z,60.62
2022-10-25T02:34:19.219Z,61.44
2022-10-25T02:36:50.170Z,61.97
2022-10-25T02:39:18.637Z,61.48
2022-10-25T02:41:45.433Z,61.63
2022-10-25T02:44:12.242Z,62.34
2022-10-25T02:46:39.231Z,62.60
2022-10-25T02:49:06.412Z,63.21
2022-10-25T02:51:33.219Z,62.52
2022-10-25T02:54:00.030Z,62.62
2022-10-25T02:56:27.110Z,63.01
2022-10-25T02:58:56.790Z,62.61
2022-10-25T03:01:24.526Z,62.53
2022-10-25T03:03:51.732Z,62.85
2022-10-25T03:06:19.250Z,62.69
2022-10-25T03:08:46.472Z,62.83
2022-10-25T03:11:14.582Z,63.00
2022-10-25T03:13:41.590Z,63.19
2022-10-25T03:16:08.941Z,62.61
2022-10-25T03:18:35.754Z,63.32
2022-10-25T03:21:04.403Z,63.24
2022-10-25T03:23:31.447Z,62.64
2022-10-25T03:26:00.287Z,63.06
2022-10-25T03:28:27.924Z,62.09
2022-10-25T03:30:55.986Z,62.50
2022-10-25T03:33:23.742Z,62.59
2022-10-25T03:35:51.953Z,61.95
2022-10-25T03:38:19.093Z,61.49
2022-10-25T03:40:46.268Z,61.54
2022-10-25T03:43:13.592Z,61.86
2022-10-25T03:45:40.411Z,60.77
2022-10-25T03:48:07.534Z,61.91
2022-10-25T03:50:36.129Z,61.09
2022-10-25T03:53:04.706Z,61.91
2022-10-25T03:55:33.080Z,61.51
2022-10-25T03:58:00.227Z,61.55
2022-10-25T04:00:27.974Z,62.47
2022-10-25T04:03:02.136Z,61.90
2022-10-25T04:05:29.695Z,62.48
2022-10-25T04:07:56.483Z,62.02
2022-10-25T04:10:25.179Z,61.84
2022-10-25T04:12:54.026Z,62.42
2022-10-25T04:15:21.639Z,62.88
2022-10-25T04:17:52.565Z,62.38
2022-10-25T04:20:19.760Z,62.88
2022-10-25T04:22:52.555Z,63.78
2022-10-25T04:25:19.413Z,63.11
2022-10-25T04:27:46.443Z,62.64
2022-10-25T04:30:13.674Z,63.12
2022-10-25T04:32:40.491Z,63.94
2022-10-25T04:35:07.721Z,63.46
2022-10-25T04:37:34.615Z,63.86
2022-10-25T04:40:01.590Z,64.07
2022-10-25T04:42:28.507Z,63.15
2022-10-25T04:44:55.295Z,63.34
2022-10-25T04:47:22.170Z,63.64
2022-10-25T04:49:49.006Z,64.35
2022-10-25T04:52:15.951Z,63.48
2022-10-25T04:54:42.773Z,63.42
2022-10-25T04:57:09.579Z,63.54
2022-10-25T04:59:36.369Z,63.23
2022-10-25T05:02:03.230Z,63.71
2022-10-25T05:04:30.033Z,63.92
2022-10-25T05:06:56.854Z,62.68
2022-10-25T05:09:24.130Z,61.82
2022-10-25T05:11:50.912Z,61.59
2022-10-25T05:14:17.810Z,61.32
2022-10-25T05:16:44.733Z,61.30
2022-10-25T05:19:11.569Z,61.93
2022-10-25T05:21:38.378Z,61.40
2022-10-25T05:24:05.637Z,62.18
2022-10-25T05:26:32.681Z,61.03
2022-10-25T05:28:59.684Z,60.75
2022-10-25T05:31:28.945Z,61.69
2022-10-25T05:34:01.150Z,60.75
2022-10-25T05:36:32.831Z,61.72
2022-10-25T05:39:03.608Z,60.61
2022-10-25T05:41:33.255Z,60.32
2022-10-25T05:44:03.185Z,60.75
2022-10-25T05:46:30.137Z,58.93
2022-10-25T05:48:59.706Z,57.90
2022-10-25T05:51:36.702Z,58.70
2022-10-25T05:54:10.269Z,57.54
2022-10-25T05:56:37.319Z,57.78
2022-10-25T05:59:09.082Z,56.67
2022-10-25T06:01:37.048Z,55.95
2022-10-25T06:04:04.054Z,55.11
2022-10-25T06:06:30.870Z,54.83
2022-10-25T06:08:59.063Z,56.14
2022-10-25T06:11:27.370Z,54.31
2022-10-25T06:13:54.634Z,54.07
2022-10-25T06:16:22.139Z,53.03
2022-10-25T06:18:49.208Z,51.87
2022-10-25T06:21:21.289Z,51.63
2022-10-25T06:23:49.513Z,52.11
2022-10-25T06:26:22.532Z,51.63
2022-10-25T06:28:52.874Z,51.52
2022-10-25T06:31:20.184Z,51.05
2022-10-25T06:33:47.264Z,50.83
2022-10-25T06:36:17.047Z,51.01
2022-10-25T06:38:45.524Z,50.47
2022-10-25T06:41:19.052Z,50.48
2022-10-25T06:43:46.073Z,50.44
2022-10-25T06:46:17.358Z,50.39
2022-10-25T06:48:44.142Z,51.06
2022-10-25T06:51:10.959Z,50.64
2022-10-25T06:53:39.262Z,50.20
2022-10-25T06:56:10.649Z,49.28
2022-10-25T06:58:41.255Z,48.48
2022-10-25T07:01:12.077Z,48.06
2022-10-25T07:03:39.735Z,47.80
2022-10-25T07:06:11.584Z,47.36
2022-10-25T07:08:40.524Z,46.46
2022-10-25T07:11:09.258Z,45.96
2022-10-25T07:13:36.072Z,45.84
2022-10-25T07:16:08.467Z,45.53
2022-10-25T07:18:36.329Z,45.28
2022-10-25T07:21:08.802Z,45.13
2022-10-25T07:23:42.000Z,45.28
2022-10-25T07:26:14.421Z,45.29
2022-10-25T07:28:43.187Z,44.60
2022-10-25T07:31:20.255Z,43.49
2022-10-25T07:33:48.357Z,43.00
2022-10-25T07:36:15.314Z,43.17
2022-10-25T07:38:42.163Z,42.76
2022-10-25T07:41:09.713Z,42.97
2022-10-25T07:43:36.662Z,42.18
2022-10-25T07:46:04.355Z,41.38
2022-10-25T07:48:31.667Z,41.16
2022-10-25T07:51:02.259Z,40.79
2022-10-25T07:53:29.133Z,41.74
2022-10-25T07:55:56.058Z,42.60
2022-10-25T07:58:22.884Z,40.80
2022-10-25T08:00:50.080Z,42.37
2022-10-25T08:03:18.334Z,41.31
2022-10-25T08:05:47.055Z,42.76
2022-10-25T08:08:15.138Z,42.01
2022-10-25T08:10:43.725Z,40.84
2022-10-25T08:13:11.374Z,41.18
2022-10-25T08:15:40.944Z,39.98
2022-10-25T08:18:09.626Z,41.25
2022-10-25T08:21:00.707Z,39.28
2022-10-25T08:23:25.396Z,39.35
2022-10-25T08:25:52.745Z,39.66
2022-10-25T08:28:20.601Z,38.74
2022-10-25T08:30:47.388Z,39.36
2022-10-25T08:33:14.230Z,38.99
2022-10-25T08:35:41.123Z,39.46
2022-10-25T08:38:07.950Z,40.58
2022-10-25T08:40:46.546Z,40.86
2022-10-25T08:43:41.205Z,40.94
2022-10-25T08:46:18.330Z,41.33
2022-10-25T08:48:49.290Z,41.56
2022-10-25T08:51:29.454Z,42.45
2022-10-25T08:54:01.593Z,41.96
2022-10-25T08:56:30.451Z,42.07
2022-10-25T08:59:02.293Z,42.30
2022-10-25T09:01:37.014Z,40.74
2022-10-25T09:04:04.146Z,40.38
2022-10-25T09:06:49.148Z,40.97
2022-10-25T09:09:28.161Z,40.80
2022-10-25T09:12:01.003Z,40.87
2022-10-25T09:14:32.633Z,40.55
2022-10-25T09:17:05.018Z,38.48
2022-10-25T09:19:39.151Z,38.04
2022-10-25T09:22:14.934Z,38.12
2022-10-25T09:25:02.737Z,37.26
2022-10-25T09:27:37.201Z,36.71
2022-10-25T09:30:13.549Z,36.72
2022-10-25T09:32:42.550Z,36.61
2022-10-25T09:35:18.371Z,35.86
2022-10-25T09:37:52.207Z,36.41
2022-10-25T09:40:25.869Z,36.73
2022-10-25T09:42:57.152Z,35.41
2022-10-25T09:45:29.183Z,35.60
2022-10-25T09:48:15.709Z,35.67
2022-10-25T09:51:01.058Z,35.23
2022-10-25T09:53:31.379Z,34.71
2022-10-25T09:56:00.309Z,34.57
2022-10-25T09:58:31.562Z,34.09
2022-10-25T10:01:04.739Z,34.45
2022-10-25T10:03:35.490Z,34.43
2022-10-25T10:06:13.007Z,35.08
2022-10-25T10:08:44.114Z,35.35
2022-10-25T10:11:17.182Z,34.35
2022-10-25T10:14:27.271Z,34.84
2022-10-25T10:16:58.020Z,34.53
2022-10-25T10:19:32.614Z,34.85
2022-10-25T10:22:27.391Z,35.03
2022-10-25T10:25:00.970Z,35.34
2022-10-25T10:27:28.989Z,35.38
2022-10-25T10:30:09.694Z,35.01
2022-10-25T10:35:33.243Z,35.26
2022-10-25T10:38:21.388Z,34.89
2022-10-25T10:40:51.722Z,34.98
2022-10-25T10:43:28.047Z,34.78
2022-10-25T10:46:00.825Z,35.57
2022-10-25T10:48:33.642Z,35.49
2022-10-25T10:51:00.819Z,35.37
2022-10-25T10:53:29.933Z,35.01
2022-10-25T10:55:59.243Z,35.65
2022-10-25T10:58:29.815Z,35.34
2022-10-25T11:01:09.288Z,35.64
2022-10-25T11:03:53.608Z,35.10
2022-10-25T11:06:31.636Z,35.89
2022-10-25T11:09:19.422Z,35.88
2022-10-25T11:12:05.890Z,35.44
2022-10-25T11:14:33.029Z,35.49
2022-10-25T11:17:14.113Z,34.70
2022-10-25T11:19:58.874Z,35.33
2022-10-25T11:22:54.025Z,34.55
2022-10-25T11:25:38.630Z,33.70
2022-10-25T11:28:30.274Z,33.46
2022-10-25T11:31:21.237Z,33.73
2022-10-25T11:34:04.617Z,33.10
2022-10-25T11:36:39.462Z,32.56
2022-10-25T11:39:22.415Z,32.94
2022-10-25T11:41:53.398Z,32.57
2022-10-25T11:44:32.048Z,32.23
2022-10-25T11:47:29.233Z,32.63
2022-10-25T11:50:28.603Z,31.42
2022-10-25T11:53:25.045Z,31.71
2022-10-25T11:56:01.124Z,31.69
2022-10-25T11:58:59.394Z,30.46
2022-10-25T12:01:42.691Z,30.78
2022-10-25T12:04:47.782Z,30.15
2022-10-25T12:07:52.897Z,30.79
2022-10-25T12:10:39.855Z,30.10
2022-10-25T12:13:12.921Z,30.51
2022-10-25T12:15:42.903Z,31.25
2022-10-25T12:18:15.698Z,31.04
2022-10-25T12:20:46.537Z,31.16
2022-10-25T12:23:26.157Z,31.39
2022-10-25T12:25:58.065Z,31.79
2022-10-25T12:28:39.712Z,31.63
2022-10-25T12:31:23.557Z,30.79
2022-10-25T12:34:12.866Z,29.55
2022-10-25T12:36:43.906Z,30.55
2022-10-25T12:39:18.257Z,30.91
2022-10-25T12:41:49.544Z,30.60
2022-10-25T12:44:36.655Z,31.05
2022-10-25T12:47:32.357Z,30.14
2022-10-25T12:52:57.718Z,30.23
2022-10-25T12:56:02.920Z,30.49
2022-10-25T12:58:42.015Z,30.32
2022-10-25T13:01:21.011Z,30.52
2022-10-25T13:04:25.618Z,29.94
2022-10-25T13:06:53.322Z,30.29
2022-10-25T13:09:24.758Z,30.18
2022-10-25T13:12:06.910Z,30.57
2022-10-25T13:14:50.711Z,29.93
2022-10-25T13:17:17.800Z,30.23
2022-10-25T13:19:56.086Z,30.01
2022-10-25T13:22:39.618Z,31.04
2022-10-25T13:25:12.639Z,31.22
2022-10-25T13:28:00.313Z,31.97
2022-10-25T13:30:32.079Z,32.12
2022-10-25T13:33:24.040Z,32.55
2022-10-25T13:35:50.991Z,31.64
2022-10-25T13:38:35.299Z,32.41
2022-10-25T13:41:08.068Z,32.59
2022-10-25T13:43:36.797Z,33.10
2022-10-25T13:46:03.649Z,33.12
2022-10-25T13:48:34.070Z,32.71
2022-10-25T13:51:08.849Z,33.16
2022-10-25T13:53:41.456Z,33.06
2022-10-25T13:56:12.341Z,33.22
2022-10-25T13:58:56.314Z,33.09
2022-10-25T14:01:25.793Z,32.78
2022-10-25T14:04:01.886Z,32.96
2022-10-25T14:06:34.673Z,33.16
2022-10-25T14:09:11.686Z,33.14
2022-10-25T14:11:52.537Z,33.10
2022-10-25T14:14:23.398Z,33.55
2022-10-25T14:16:53.104Z,32.79
2022-10-25T14:19:36.594Z,33.63
2022-10-25T14:22:11.682Z,34.28
2022-10-25T14:24:41.581Z,34.06
2022-10-25T14:27:36.901Z,34.82
2022-10-25T14:30:25.232Z,35.42
2022-10-25T14:33:03.841Z,35.06
2022-10-25T14:35:47.460Z,35.63
2022-10-25T14:38:17.703Z,35.86
2022-10-25T14:40:54.561Z,35.79
2022-10-25T14:43:38.169Z,37.17
2022-10-25T14:46:13.445Z,37.13
2022-10-25T14:48:47.567Z,37.26
2022-10-25T14:51:26.865Z,38.44
2022-10-25T14:54:06.491Z,39.30
2022-10-25T14:56:45.276Z,40.36
2022-10-25T14:59:20.424Z,38.90
2022-10-25T15:02:02.533Z,39.11
2022-10-25T15:04:40.401Z,43.45
2022-10-25T15:07:18.926Z,43.64
2022-10-25T15:09:53.449Z,43.07
2022-10-25T15:12:38.434Z,41.06
2022-10-25T15:15:35.358Z,42.92
2022-10-25T15:18:02.206Z,43.86
2022-10-25T15:20:32.148Z,44.99
2022-10-25T15:23:14.483Z,45.07
2022-10-25T15:25:41.511Z,44.66
2022-10-25T15:28:10.869Z,44.17
2022-10-25T15:30:49.812Z,44.66
2022-10-25T15:33:20.232Z,45.17
2022-10-25T15:35:52.325Z,45.37
2022-10-25T15:38:19.300Z,45.67
2022-10-25T15:40:47.637Z,46.74
2022-10-25T15:43:14.956Z,46.75
2022-10-25T15:45:41.921Z,47.45
2022-10-25T15:48:15.249Z,47.65
2022-10-25T15:50:46.934Z,47.15
2022-10-25T15:53:13.773Z,47.09
2022-10-25T15:55:40.527Z,46.00
2022-10-25T15:58:09.838Z,46.63
2022-10-25T16:00:37.928Z,47.40
2022-10-25T16:03:06.073Z,47.16
2022-10-25T16:05:35.601Z,47.34
2022-10-25T16:08:03.218Z,48.21
2022-10-25T16:10:31.527Z,48.22
2022-10-25T16:13:03.908Z,47.75
2022-10-25T16:15:31.122Z,47.31
2022-10-25T16:17:57.933Z,48.11
2022-10-25T16:20:29.968Z,49.19
2022-10-25T16:22:57.319Z,48.86
2022-10-25T16:25:30.430Z,49.32
2022-10-25T16:28:00.070Z,49.80
2022-10-25T16:30:31.161Z,49.44
2022-10-25T16:32:57.963Z,48.91
2022-10-25T16:35:24.774Z,48.63
2022-10-25T16:37:52.514Z,48.99
2022-10-25T16:40:21.083Z,49.60
2022-10-25T16:42:48.649Z,49.26
2022-10-25T16:45:22.892Z,50.00
2022-10-25T16:47:49.906Z,49.87
2022-10-25T16:50:23.060Z,50.00
2022-10-25T16:52:51.442Z,50.64
2022-10-25T16:55:19.334Z,50.64
2022-10-25T16:57:46.482Z,50.65
2022-10-25T17:00:14.516Z,51.32
2022-10-25T17:02:41.694Z,50.89
2022-10-25T17:05:19.143Z,51.88
2022-10-25T17:07:46.367Z,51.43
2022-10-25T17:10:14.374Z,50.46
2022-10-25T17:12:52.539Z,50.89
2022-10-25T17:15:20.573Z,49.87
2022-10-25T17:17:47.963Z,50.64
2022-10-25T17:20:16.493Z,51.06
2022-10-25T17:22:43.935Z,51.50
2022-10-25T17:25:11.786Z,50.70
2022-10-25T17:27:40.563Z,50.88
2022-10-25T17:30:09.575Z,50.07
2022-10-25T17:32:37.474Z,49.96
2022-10-25T17:35:05.950Z,50.85
2022-10-25T17:37:33.690Z,50.20
2022-10-25T17:40:01.220Z,48.99
2022-10-25T17:42:28.402Z,49.24
2022-10-25T17:44:55.661Z,49.10
2022-10-25T17:47:22.699Z,48.87
2022-10-25T17:49:49.696Z,49.10
2022-10-25T17:52:16.545Z,49.36
2022-10-25T17:54:43.322Z,49.95
2022-10-25T17:57:10.199Z,49.55
2022-10-25T17:59:37.125Z,49.26
2022-10-25T18:02:04.006Z,49.52
2022-10-25T18:04:41.831Z,48.76
2022-10-25T18:07:17.651Z,48.32
2022-10-25T18:09:44.505Z,49.27
2022-10-25T18:12:11.702Z,49.83
2022-10-25T18:14:38.569Z,50.28
2022-10-25T18:17:06.649Z,49.70
2022-10-25T18:19:33.513Z,49.40
2022-10-25T18:22:00.858Z,50.23
2022-10-25T18:24:30.475Z,50.56
2022-10-25T18:26:57.590Z,50.60
2022-10-25T18:29:24.376Z,50.35
2022-10-25T18:31:51.563Z,52.09
2022-10-25T18:34:18.880Z,51.88
2022-10-25T18:36:45.725Z,51.27
2022-10-25T18:39:12.585Z,51.49
2022-10-25T18:41:40.979Z,52.82
2022-10-25T18:44:14.179Z,53.06
2022-10-25T18:46:42.897Z,52.79
2022-10-25T18:49:14.279Z,52.79
2022-10-25T18:51:41.340Z,52.22
2022-10-25T18:54:11.582Z,52.19
2022-10-25T18:56:38.530Z,52.88
2022-10-25T18:59:05.451Z,52.85
2022-10-25T19:01:33.207Z,53.35
2022-10-25T19:04:01.602Z,53.37
2022-10-25T19:06:29.658Z,53.68
2022-10-25T19:08:56.637Z,53.40
2022-10-25T19:11:23.822Z,53.37
2022-10-25T19:13:55.042Z,53.24
2022-10-25T19:16:23.054Z,54.11
2022-10-25T19:18:50.543Z,55.23
2022-10-25T19:21:18.502Z,55.30
2022-10-25T19:23:46.770Z,54.80
2022-10-25T19:26:17.289Z,54.57
2022-10-25T19:28:44.687Z,54.09
2022-10-25T19:31:17.473Z,53.31
2022-10-25T19:33:49.120Z,53.49
2022-10-25T19:36:17.025Z,53.91
2022-10-25T19:38:48.883Z,53.13
2022-10-25T19:41:16.985Z,53.28
2022-10-25T19:43:44.122Z,53.64
2022-10-25T19:46:11.982Z,52.85
2022-10-25T19:48:39.047Z,53.07
2022-10-25T19:51:06.106Z,52.58
2022-10-25T19:53:33.224Z,54.19
2022-10-25T19:56:09.085Z,54.04
2022-10-25T19:58:36.740Z,53.85
2022-10-25T20:01:13.661Z,54.48
2022-10-25T20:03:41.385Z,54.04
2022-10-25T20:06:21.594Z,54.16
2022-10-25T20:08:51.717Z,54.37
2022-10-25T20:11:19.647Z,54.51
2022-10-25T20:13:46.733Z,54.64
2022-10-25T20:16:14.534Z,54.02
2022-10-25T20:18:42.636Z,54.15
2022-10-25T20:21:17.808Z,54.05
2022-10-25T20:23:49.874Z,53.76
2022-10-25T20:26:23.421Z,54.36
2022-10-25T20:28:53.104Z,54.35
2022-10-25T20:31:20.080Z,54.63
2022-10-25T20:33:46.967Z,54.83
2022-10-25T20:36:14.451Z,54.87
2022-10-25T20:38:41.661Z,55.09
2022-10-25T20:41:14.077Z,55.45
2022-10-25T20:43:43.177Z,54.40
2022-10-25T20:46:10.037Z,53.73
2022-10-25T20:48:36.960Z,55.16
2022-10-25T20:51:06.879Z,54.52
2022-10-25T20:53:36.395Z,54.48
2022-10-25T20:56:03.521Z,52.67
2022-10-25T20:58:30.697Z,52.60
2022-10-25T21:00:57.663Z,53.02
2022-10-25T21:03:26.755Z,53.01
2022-10-25T21:05:54.691Z,53.92
2022-10-25T21:08:23.045Z,52.89
2022-10-25T21:10:54.961Z,52.95
2022-10-25T21:13:22.330Z,53.34
2022-10-25T21:15:49.728Z,53.30
2022-10-25T21:18:17.093Z,53.29
2022-10-25T21:20:45.404Z,53.95
2022-10-25T21:23:12.574Z,54.43
2022-10-25T21:25:39.791Z,54.14
2022-10-25T21:28:07.175Z,54.46
2022-10-25T21:30:34.020Z,53.14
2022-10-25T21:33:02.888Z,53.84
2022-10-25T21:35:29.685Z,54.25
2022-10-25T21:37:59.006Z,53.75
2022-10-25T21:40:26.065Z,54.99
2022-10-25T21:42:52.891Z,54.90
2022-10-25T21:45:19.734Z,55.07
2022-10-25T21:47:46.800Z,52.78
2022-10-25T21:50:15.231Z,53.89
2022-10-25T21:52:42.008Z,54.20
2022-10-25T21:55:09.397Z,54.61
2022-10-25T21:57:36.883Z,54.24
2022-10-25T22:00:05.012Z,53.99
2022-10-25T22:02:39.829Z,54.46
2022-10-25T22:05:07.016Z,54.51
2022-10-25T22:07:33.955Z,53.88
2022-10-25T22:10:00.766Z,54.74
2022-10-25T22:12:27.645Z,53.53
2022-10-25T22:14:55.135Z,53.39
2022-10-25T22:17:23.229Z,54.39
2022-10-25T22:19:50.017Z,55.10
2022-10-25T22:22:16.822Z,53.88
2022-10-25T22:24:43.593Z,51.61
2022-10-25T22:27:10.400Z,51.71
2022-10-25T22:29:37.238Z,51.30
2022-10-25T22:32:04.149Z,50.53
2022-10-25T22:34:30.986Z,50.73
2022-10-25T22:36:57.840Z,52.32
2022-10-25T22:39:24.761Z,52.48
2022-10-25T22:41:53.585Z,51.94
2022-10-25T22:46:52.973Z,49.88
2022-10-25T22:49:19.762Z,49.07
2022-10-25T22:51:46.615Z,48.38
2022-10-25T22:54:13.435Z,47.42
2022-10-25T22:56:40.367Z,46.10
2022-10-25T22:59:07.264Z,45.93
2022-10-25T23:01:36.584Z,45.76
2022-10-25T23:04:05.943Z,44.53
2022-10-25T23:06:35.355Z,44.72
2022-10-25T23:09:05.510Z,45.22
2022-10-25T23:11:34.398Z,45.42
2022-10-25T23:14:01.979Z,45.02
2022-10-25T23:16:29.826Z,44.64
2022-10-25T23:18:57.343Z,44.55
2022-10-25T23:21:26.863Z,45.43
2022-10-25T23:23:54.716Z,45.37
2022-10-25T23:26:36.461Z,45.64
2022-10-25T23:29:04.568Z,46.12
2022-10-25T23:31:32.477Z,45.12
2022-10-25T23:34:00.589Z,45.60
2022-10-25T23:36:29.984Z,45.16
2022-10-25T23:38:57.863Z,45.13
2022-10-25T23:41:24.831Z,45.30
2022-10-25T23:43:51.743Z,45.26
2022-10-25T23:46:18.860Z,45.47
2022-10-25T23:48:45.714Z,45.00
2022-10-25T23:51:15.498Z,44.14
2022-10-25T23:53:42.909Z,44.76
2022-10-25T23:56:12.499Z,45.08
2022-10-25T23:58:39.662Z,45.00
